sensor_id;sensor_type;location;lat;lon;timestamp;temperature;humidity
1680;DHT22;838;51.794;12.258;2023-06-14T00:00:20;15.90;1.00
1680;DHT22;838;51.794;12.258;2023-06-14T00:02:47;15.90;1.00
1680;DHT22;838;51.794;12.258;2023-06-14T00:05:13;15.90;1.00
1680;DHT22;838;51.794;12.258;2023-06-14T00:07:41;15.90;1.00
1680;DHT22;838;51.794;12.258;2023-06-14T00:10:11;15.80;1.00
1680;DHT22;838;51.794;12.258;2023-06-14T00:12:37;15.80;1.00
1680;DHT22;838;51.794;12.258;2023-06-14T00:15:03;15.70;1.00
1680;DHT22;838;51.794;12.258;2023-06-14T00:17:29;15.60;1.00
1680;DHT22;838;51.794;12.258;2023-06-14T00:19:56;15.60;1.00
1680;DHT22;838;51.794;12.258;2023-06-14T00:22:22;15.60;1.00
1680;DHT22;838;51.794;12.258;2023-06-14T00:24:50;15.70;1.00
1680;DHT22;838;51.794;12.258;2023-06-14T00:27:16;15.70;1.00
1680;DHT22;838;51.794;12.258;2023-06-14T00:29:42;15.60;1.00
1680;DHT22;838;51.794;12.258;2023-06-14T00:32:08;15.60;1.00
1680;DHT22;838;51.794;12.258;2023-06-14T00:34:34;15.60;1.00
1680;DHT22;838;51.794;12.258;2023-06-14T00:37:00;15.60;1.00
1680;DHT22;838;51.794;12.258;2023-06-14T00:39:26;15.70;1.00
1680;DHT22;838;51.794;12.258;2023-06-14T00:41:51;15.60;1.00
1680;DHT22;838;51.794;12.258;2023-06-14T00:44:17;15.50;1.00
1680;DHT22;838;51.794;12.258;2023-06-14T00:46:45;15.50;1.00
1680;DHT22;838;51.794;12.258;2023-06-14T00:49:12;15.40;1.00
1680;DHT22;838;51.794;12.258;2023-06-14T00:51:39;15.50;1.00
1680;DHT22;838;51.794;12.258;2023-06-14T00:54:05;15.50;1.00
1680;DHT22;838;51.794;12.258;2023-06-14T00:56:31;15.40;1.00
1680;DHT22;838;51.794;12.258;2023-06-14T00:58:58;15.30;1.00
1680;DHT22;838;51.794;12.258;2023-06-14T01:01:24;15.30;1.00
1680;DHT22;838;51.794;12.258;2023-06-14T01:03:50;15.20;1.00
1680;DHT22;838;51.794;12.258;2023-06-14T01:07:09;15.00;1.40
1680;DHT22;838;51.794;12.258;2023-06-14T01:15:17;14.80;3.80
1680;DHT22;838;51.794;12.258;2023-06-14T01:17:45;14.90;4.10
1680;DHT22;838;51.794;12.258;2023-06-14T01:20:12;14.90;3.80
1680;DHT22;838;51.794;12.258;2023-06-14T01:22:54;14.90;4.10
1680;DHT22;838;51.794;12.258;2023-06-14T01:25:21;14.90;4.20
1680;DHT22;838;51.794;12.258;2023-06-14T01:28:06;14.90;4.20
1680;DHT22;838;51.794;12.258;2023-06-14T01:30:39;15.00;4.80
1680;DHT22;838;51.794;12.258;2023-06-14T01:33:08;14.80;5.30
1680;DHT22;838;51.794;12.258;2023-06-14T01:35:34;14.90;4.80
1680;DHT22;838;51.794;12.258;2023-06-14T01:38:00;15.00;4.40
1680;DHT22;838;51.794;12.258;2023-06-14T01:40:27;15.00;3.60
1680;DHT22;838;51.794;12.258;2023-06-14T01:42:53;15.00;3.60
1680;DHT22;838;51.794;12.258;2023-06-14T01:45:19;15.00;3.90
1680;DHT22;838;51.794;12.258;2023-06-14T01:47:46;14.70;5.90
1680;DHT22;838;51.794;12.258;2023-06-14T01:50:13;14.50;8.40
1680;DHT22;838;51.794;12.258;2023-06-14T01:52:39;14.30;9.60
1680;DHT22;838;51.794;12.258;2023-06-14T01:55:05;14.20;10.40
1680;DHT22;838;51.794;12.258;2023-06-14T01:57:31;14.10;11.90
1680;DHT22;838;51.794;12.258;2023-06-14T01:59:57;14.20;11.70
1680;DHT22;838;51.794;12.258;2023-06-14T02:02:23;14.10;13.10
1680;DHT22;838;51.794;12.258;2023-06-14T02:04:48;14.30;10.50
1680;DHT22;838;51.794;12.258;2023-06-14T02:07:14;14.30;8.70
1680;DHT22;838;51.794;12.258;2023-06-14T02:09:41;14.20;8.40
1680;DHT22;838;51.794;12.258;2023-06-14T02:12:07;14.30;7.50
1680;DHT22;838;51.794;12.258;2023-06-14T02:14:33;14.30;8.10
1680;DHT22;838;51.794;12.258;2023-06-14T02:16:59;14.30;8.20
1680;DHT22;838;51.794;12.258;2023-06-14T02:19:26;14.40;8.60
1680;DHT22;838;51.794;12.258;2023-06-14T02:21:52;14.50;8.40
1680;DHT22;838;51.794;12.258;2023-06-14T02:24:18;14.40;7.70
1680;DHT22;838;51.794;12.258;2023-06-14T02:26:43;14.20;7.60
1680;DHT22;838;51.794;12.258;2023-06-14T02:29:09;14.10;8.60
1680;DHT22;838;51.794;12.258;2023-06-14T02:31:38;14.00;8.80
1680;DHT22;838;51.794;12.258;2023-06-14T02:34:04;14.10;9.20
1680;DHT22;838;51.794;12.258;2023-06-14T02:36:30;14.10;9.30
1680;DHT22;838;51.794;12.258;2023-06-14T02:38:56;14.00;10.30
1680;DHT22;838;51.794;12.258;2023-06-14T02:41:25;13.90;11.20
1680;DHT22;838;51.794;12.258;2023-06-14T02:43:52;13.80;13.60
1680;DHT22;838;51.794;12.258;2023-06-14T02:46:17;13.60;15.60
1680;DHT22;838;51.794;12.258;2023-06-14T02:48:43;13.50;18.00
1680;DHT22;838;51.794;12.258;2023-06-14T02:51:09;13.50;18.10
1680;DHT22;838;51.794;12.258;2023-06-14T02:53:35;13.60;18.70
1680;DHT22;838;51.794;12.258;2023-06-14T02:56:02;13.60;18.40
1680;DHT22;838;51.794;12.258;2023-06-14T02:58:29;13.50;17.30
1680;DHT22;838;51.794;12.258;2023-06-14T03:00:55;13.50;15.90
1680;DHT22;838;51.794;12.258;2023-06-14T03:03:21;13.20;15.70
1680;DHT22;838;51.794;12.258;2023-06-14T03:05:50;12.90;19.10
1680;DHT22;838;51.794;12.258;2023-06-14T03:08:17;12.60;24.10
1680;DHT22;838;51.794;12.258;2023-06-14T03:10:45;12.40;27.40
1680;DHT22;838;51.794;12.258;2023-06-14T03:13:12;12.20;31.90
1680;DHT22;838;51.794;12.258;2023-06-14T03:15:38;12.30;34.80
1680;DHT22;838;51.794;12.258;2023-06-14T03:18:04;12.40;35.30
1680;DHT22;838;51.794;12.258;2023-06-14T03:20:30;12.50;34.90
1680;DHT22;838;51.794;12.258;2023-06-14T03:23:00;12.70;34.20
1680;DHT22;838;51.794;12.258;2023-06-14T03:25:26;12.90;32.70
1680;DHT22;838;51.794;12.258;2023-06-14T03:27:57;13.00;32.20
1680;DHT22;838;51.794;12.258;2023-06-14T03:30:23;13.10;31.80
1680;DHT22;838;51.794;12.258;2023-06-14T03:32:48;13.20;32.60
1680;DHT22;838;51.794;12.258;2023-06-14T03:35:14;13.40;30.90
1680;DHT22;838;51.794;12.258;2023-06-14T03:37:46;13.40;30.60
1680;DHT22;838;51.794;12.258;2023-06-14T03:40:13;13.60;30.00
1680;DHT22;838;51.794;12.258;2023-06-14T03:42:39;13.80;28.90
1680;DHT22;838;51.794;12.258;2023-06-14T03:45:06;13.90;28.10
1680;DHT22;838;51.794;12.258;2023-06-14T03:47:34;14.00;27.50
1680;DHT22;838;51.794;12.258;2023-06-14T03:50:00;14.10;25.70
1680;DHT22;838;51.794;12.258;2023-06-14T03:52:27;14.20;24.40
1680;DHT22;838;51.794;12.258;2023-06-14T03:54:52;14.30;24.10
1680;DHT22;838;51.794;12.258;2023-06-14T03:57:18;14.40;22.40
1680;DHT22;838;51.794;12.258;2023-06-14T03:59:44;14.40;22.20
1680;DHT22;838;51.794;12.258;2023-06-14T04:02:10;14.30;21.70
1680;DHT22;838;51.794;12.258;2023-06-14T04:04:36;14.60;20.70
1680;DHT22;838;51.794;12.258;2023-06-14T04:07:02;14.80;20.70
1680;DHT22;838;51.794;12.258;2023-06-14T04:09:31;14.80;20.80
1680;DHT22;838;51.794;12.258;2023-06-14T04:11:57;14.80;22.20
1680;DHT22;838;51.794;12.258;2023-06-14T04:14:23;14.60;24.50
1680;DHT22;838;51.794;12.258;2023-06-14T04:16:49;14.20;28.10
1680;DHT22;838;51.794;12.258;2023-06-14T04:19:15;13.90;31.90
1680;DHT22;838;51.794;12.258;2023-06-14T04:21:41;13.80;34.30
1680;DHT22;838;51.794;12.258;2023-06-14T04:24:07;13.80;34.40
1680;DHT22;838;51.794;12.258;2023-06-14T04:26:42;13.90;33.60
1680;DHT22;838;51.794;12.258;2023-06-14T04:29:13;14.00;35.20
1680;DHT22;838;51.794;12.258;2023-06-14T04:31:46;14.10;34.20
1680;DHT22;838;51.794;12.258;2023-06-14T04:34:12;14.30;34.10
1680;DHT22;838;51.794;12.258;2023-06-14T04:36:44;14.30;33.10
1680;DHT22;838;51.794;12.258;2023-06-14T04:39:20;14.50;33.30
1680;DHT22;838;51.794;12.258;2023-06-14T04:41:49;14.80;30.50
1680;DHT22;838;51.794;12.258;2023-06-14T04:44:18;15.10;27.90
1680;DHT22;838;51.794;12.258;2023-06-14T04:46:45;15.10;27.90
1680;DHT22;838;51.794;12.258;2023-06-14T04:49:15;15.20;26.90
1680;DHT22;838;51.794;12.258;2023-06-14T04:51:42;15.30;26.20
1680;DHT22;838;51.794;12.258;2023-06-14T04:54:09;15.40;25.40
1680;DHT22;838;51.794;12.258;2023-06-14T04:56:43;15.50;25.40
1680;DHT22;838;51.794;12.258;2023-06-14T04:59:10;15.60;23.50
1680;DHT22;838;51.794;12.258;2023-06-14T05:01:40;15.80;22.30
1680;DHT22;838;51.794;12.258;2023-06-14T05:04:06;16.00;20.50
1680;DHT22;838;51.794;12.258;2023-06-14T05:06:32;16.20;19.40
1680;DHT22;838;51.794;12.258;2023-06-14T05:08:58;16.30;19.70
1680;DHT22;838;51.794;12.258;2023-06-14T05:11:24;16.20;19.50
1680;DHT22;838;51.794;12.258;2023-06-14T05:13:50;16.20;18.40
1680;DHT22;838;51.794;12.258;2023-06-14T05:16:17;16.00;22.20
1680;DHT22;838;51.794;12.258;2023-06-14T05:18:45;15.90;22.70
1680;DHT22;838;51.794;12.258;2023-06-14T05:21:12;16.00;22.40
1680;DHT22;838;51.794;12.258;2023-06-14T05:23:38;16.10;20.00
1680;DHT22;838;51.794;12.258;2023-06-14T05:26:04;16.30;19.80
1680;DHT22;838;51.794;12.258;2023-06-14T05:28:30;16.50;18.40
1680;DHT22;838;51.794;12.258;2023-06-14T05:30:56;16.50;17.60
1680;DHT22;838;51.794;12.258;2023-06-14T05:33:24;16.40;18.90
1680;DHT22;838;51.794;12.258;2023-06-14T05:35:50;16.40;20.10
1680;DHT22;838;51.794;12.258;2023-06-14T05:38:16;16.50;19.90
1680;DHT22;838;51.794;12.258;2023-06-14T05:40:41;16.60;17.20
1680;DHT22;838;51.794;12.258;2023-06-14T05:43:07;16.60;17.70
1680;DHT22;838;51.794;12.258;2023-06-14T05:45:33;16.80;19.20
1680;DHT22;838;51.794;12.258;2023-06-14T05:47:58;17.10;15.50
1680;DHT22;838;51.794;12.258;2023-06-14T05:50:24;17.20;14.60
1680;DHT22;838;51.794;12.258;2023-06-14T05:52:50;17.30;11.10
1680;DHT22;838;51.794;12.258;2023-06-14T05:55:19;17.50;13.70
1680;DHT22;838;51.794;12.258;2023-06-14T05:57:45;17.60;11.30
1680;DHT22;838;51.794;12.258;2023-06-14T06:00:11;17.50;9.30
1680;DHT22;838;51.794;12.258;2023-06-14T06:02:40;17.40;9.70
1680;DHT22;838;51.794;12.258;2023-06-14T06:05:08;17.40;11.00
1680;DHT22;838;51.794;12.258;2023-06-14T06:07:34;17.40;11.60
1680;DHT22;838;51.794;12.258;2023-06-14T06:10:00;17.50;10.80
1680;DHT22;838;51.794;12.258;2023-06-14T06:12:25;17.60;9.30
1680;DHT22;838;51.794;12.258;2023-06-14T06:14:51;17.80;6.80
1680;DHT22;838;51.794;12.258;2023-06-14T06:17:17;18.00;4.80
1680;DHT22;838;51.794;12.258;2023-06-14T06:19:42;17.90;6.70
1680;DHT22;838;51.794;12.258;2023-06-14T06:22:08;17.80;5.50
1680;DHT22;838;51.794;12.258;2023-06-14T06:24:34;17.80;5.50
1680;DHT22;838;51.794;12.258;2023-06-14T06:27:00;17.80;6.80
1680;DHT22;838;51.794;12.258;2023-06-14T06:29:26;18.10;5.00
1680;DHT22;838;51.794;12.258;2023-06-14T06:31:51;18.40;3.40
1680;DHT22;838;51.794;12.258;2023-06-14T06:34:17;18.40;1.80
1680;DHT22;838;51.794;12.258;2023-06-14T06:36:43;18.50;1.00
1680;DHT22;838;51.794;12.258;2023-06-14T06:39:08;18.60;1.00
1680;DHT22;838;51.794;12.258;2023-06-14T06:41:37;18.90;1.00
1680;DHT22;838;51.794;12.258;2023-06-14T06:44:03;18.80;1.00
1680;DHT22;838;51.794;12.258;2023-06-14T06:46:29;18.80;1.00
1680;DHT22;838;51.794;12.258;2023-06-14T06:48:54;18.80;1.00
1680;DHT22;838;51.794;12.258;2023-06-14T06:51:20;19.00;1.00
1680;DHT22;838;51.794;12.258;2023-06-14T06:53:52;19.10;1.00
1680;DHT22;838;51.794;12.258;2023-06-14T06:56:18;19.10;1.00
1680;DHT22;838;51.794;12.258;2023-06-14T06:58:45;18.80;1.00
1680;DHT22;838;51.794;12.258;2023-06-14T07:01:10;18.70;1.00
1680;DHT22;838;51.794;12.258;2023-06-14T07:03:37;18.90;1.00
1680;DHT22;838;51.794;12.258;2023-06-14T07:06:03;19.10;1.00
1680;DHT22;838;51.794;12.258;2023-06-14T07:08:29;19.20;1.00
1680;DHT22;838;51.794;12.258;2023-06-14T07:10:55;19.10;1.00
1680;DHT22;838;51.794;12.258;2023-06-14T07:13:21;19.20;1.00
1680;DHT22;838;51.794;12.258;2023-06-14T07:15:47;19.20;1.00
1680;DHT22;838;51.794;12.258;2023-06-14T07:18:13;19.50;1.00
1680;DHT22;838;51.794;12.258;2023-06-14T07:20:39;19.40;1.00
1680;DHT22;838;51.794;12.258;2023-06-14T07:23:05;19.40;1.00
1680;DHT22;838;51.794;12.258;2023-06-14T07:25:31;19.40;1.00
1680;DHT22;838;51.794;12.258;2023-06-14T07:27:57;19.50;1.00
1680;DHT22;838;51.794;12.258;2023-06-14T07:30:22;19.60;1.00
1680;DHT22;838;51.794;12.258;2023-06-14T07:32:52;19.50;1.00
1680;DHT22;838;51.794;12.258;2023-06-14T07:35:18;19.30;1.00
1680;DHT22;838;51.794;12.258;2023-06-14T07:37:44;19.50;1.00
1680;DHT22;838;51.794;12.258;2023-06-14T07:40:11;19.80;1.00
1680;DHT22;838;51.794;12.258;2023-06-14T07:42:38;20.10;1.00
1680;DHT22;838;51.794;12.258;2023-06-14T07:45:04;20.50;1.00
1680;DHT22;838;51.794;12.258;2023-06-14T07:47:30;20.60;1.00
1680;DHT22;838;51.794;12.258;2023-06-14T07:49:56;20.70;1.00
1680;DHT22;838;51.794;12.258;2023-06-14T07:52:22;20.50;1.00
1680;DHT22;838;51.794;12.258;2023-06-14T07:54:47;20.60;1.00
1680;DHT22;838;51.794;12.258;2023-06-14T07:57:13;20.90;1.00
1680;DHT22;838;51.794;12.258;2023-06-14T07:59:39;20.90;1.00
1680;DHT22;838;51.794;12.258;2023-06-14T08:02:05;20.80;1.00
1680;DHT22;838;51.794;12.258;2023-06-14T08:04:31;21.20;1.00
1680;DHT22;838;51.794;12.258;2023-06-14T08:06:58;21.30;1.00
1680;DHT22;838;51.794;12.258;2023-06-14T08:09:23;21.20;1.00
1680;DHT22;838;51.794;12.258;2023-06-14T08:11:50;21.20;1.00
1680;DHT22;838;51.794;12.258;2023-06-14T08:14:16;21.40;1.00
1680;DHT22;838;51.794;12.258;2023-06-14T08:16:42;21.40;1.00
1680;DHT22;838;51.794;12.258;2023-06-14T08:19:07;21.30;1.00
1680;DHT22;838;51.794;12.258;2023-06-14T08:21:33;21.20;1.00
1680;DHT22;838;51.794;12.258;2023-06-14T08:24:02;21.40;1.00
1680;DHT22;838;51.794;12.258;2023-06-14T08:26:29;21.30;1.00
1680;DHT22;838;51.794;12.258;2023-06-14T08:28:55;21.30;1.00
1680;DHT22;838;51.794;12.258;2023-06-14T08:31:21;21.40;1.00
1680;DHT22;838;51.794;12.258;2023-06-14T08:33:47;21.80;1.00
1680;DHT22;838;51.794;12.258;2023-06-14T08:36:13;22.00;1.00
1680;DHT22;838;51.794;12.258;2023-06-14T08:38:39;21.80;1.00
1680;DHT22;838;51.794;12.258;2023-06-14T08:41:06;21.90;1.00
1680;DHT22;838;51.794;12.258;2023-06-14T08:43:32;21.50;1.00
1680;DHT22;838;51.794;12.258;2023-06-14T08:46:01;21.70;1.00
1680;DHT22;838;51.794;12.258;2023-06-14T08:48:28;21.80;1.00
1680;DHT22;838;51.794;12.258;2023-06-14T08:50:56;21.40;1.00
1680;DHT22;838;51.794;12.258;2023-06-14T08:53:28;21.20;1.00
1680;DHT22;838;51.794;12.258;2023-06-14T08:56:01;21.20;1.00
1680;DHT22;838;51.794;12.258;2023-06-14T08:58:28;21.30;1.00
1680;DHT22;838;51.794;12.258;2023-06-14T09:01:01;21.50;1.00
1680;DHT22;838;51.794;12.258;2023-06-14T09:03:26;21.70;1.00
1680;DHT22;838;51.794;12.258;2023-06-14T09:05:58;21.20;1.00
1680;DHT22;838;51.794;12.258;2023-06-14T09:08:27;21.10;1.00
1680;DHT22;838;51.794;12.258;2023-06-14T09:10:57;21.30;1.00
1680;DHT22;838;51.794;12.258;2023-06-14T09:13:23;22.00;1.00
1680;DHT22;838;51.794;12.258;2023-06-14T09:15:48;22.60;1.00
1680;DHT22;838;51.794;12.258;2023-06-14T09:18:15;22.90;1.00
1680;DHT22;838;51.794;12.258;2023-06-14T09:20:41;23.00;1.00
1680;DHT22;838;51.794;12.258;2023-06-14T09:23:07;23.10;1.00
1680;DHT22;838;51.794;12.258;2023-06-14T09:25:42;23.40;1.00
1680;DHT22;838;51.794;12.258;2023-06-14T09:28:09;22.90;1.00
1680;DHT22;838;51.794;12.258;2023-06-14T09:30:39;22.80;1.00
1680;DHT22;838;51.794;12.258;2023-06-14T09:33:04;23.10;1.00
1680;DHT22;838;51.794;12.258;2023-06-14T09:35:34;23.20;1.00
1680;DHT22;838;51.794;12.258;2023-06-14T09:38:00;23.70;1.00
1680;DHT22;838;51.794;12.258;2023-06-14T09:40:26;24.10;1.00
1680;DHT22;838;51.794;12.258;2023-06-14T09:42:52;24.10;1.00
1680;DHT22;838;51.794;12.258;2023-06-14T09:45:19;24.40;1.00
1680;DHT22;838;51.794;12.258;2023-06-14T09:47:49;24.10;1.00
1680;DHT22;838;51.794;12.258;2023-06-14T09:50:15;23.80;1.00
1680;DHT22;838;51.794;12.258;2023-06-14T09:52:43;23.60;1.00
1680;DHT22;838;51.794;12.258;2023-06-14T09:55:13;24.20;1.00
1680;DHT22;838;51.794;12.258;2023-06-14T09:57:41;25.00;1.00
1680;DHT22;838;51.794;12.258;2023-06-14T10:00:11;25.30;1.00
1680;DHT22;838;51.794;12.258;2023-06-14T10:02:39;24.90;1.00
1680;DHT22;838;51.794;12.258;2023-06-14T10:05:11;25.20;1.00
1680;DHT22;838;51.794;12.258;2023-06-14T10:10:12;23.50;1.00
1680;DHT22;838;51.794;12.258;2023-06-14T10:12:39;23.60;1.00
1680;DHT22;838;51.794;12.258;2023-06-14T10:15:07;23.70;1.00
1680;DHT22;838;51.794;12.258;2023-06-14T10:23:37;23.70;1.00
1680;DHT22;838;51.794;12.258;2023-06-14T10:26:03;24.00;1.00
1680;DHT22;838;51.794;12.258;2023-06-14T10:28:29;24.40;1.00
1680;DHT22;838;51.794;12.258;2023-06-14T10:31:02;23.90;1.00
1680;DHT22;838;51.794;12.258;2023-06-14T10:33:35;23.60;1.00
1680;DHT22;838;51.794;12.258;2023-06-14T10:36:09;23.50;1.00
1680;DHT22;838;51.794;12.258;2023-06-14T10:38:36;23.30;1.00
1680;DHT22;838;51.794;12.258;2023-06-14T10:41:04;23.40;1.00
1680;DHT22;838;51.794;12.258;2023-06-14T10:43:30;23.40;1.00
1680;DHT22;838;51.794;12.258;2023-06-14T10:46:18;23.20;1.00
1680;DHT22;838;51.794;12.258;2023-06-14T10:48:47;23.30;1.00
1680;DHT22;838;51.794;12.258;2023-06-14T10:51:20;23.10;1.00
1680;DHT22;838;51.794;12.258;2023-06-14T10:53:47;22.90;1.00
1680;DHT22;838;51.794;12.258;2023-06-14T10:56:27;22.80;1.00
1680;DHT22;838;51.794;12.258;2023-06-14T10:58:54;22.70;1.00
1680;DHT22;838;51.794;12.258;2023-06-14T11:01:30;23.10;1.00
1680;DHT22;838;51.794;12.258;2023-06-14T11:04:07;23.50;1.00
1680;DHT22;838;51.794;12.258;2023-06-14T11:06:47;23.40;1.00
1680;DHT22;838;51.794;12.258;2023-06-14T11:12:00;23.60;1.00
1680;DHT22;838;51.794;12.258;2023-06-14T11:14:30;23.80;1.00
1680;DHT22;838;51.794;12.258;2023-06-14T11:16:56;23.30;1.00
1680;DHT22;838;51.794;12.258;2023-06-14T11:19:22;23.20;1.00
1680;DHT22;838;51.794;12.258;2023-06-14T11:21:49;23.00;1.00
1680;DHT22;838;51.794;12.258;2023-06-14T11:24:16;23.00;1.00
1680;DHT22;838;51.794;12.258;2023-06-14T11:26:42;23.10;1.00
1680;DHT22;838;51.794;12.258;2023-06-14T11:29:08;23.60;1.00
1680;DHT22;838;51.794;12.258;2023-06-14T11:31:33;24.10;1.00
1680;DHT22;838;51.794;12.258;2023-06-14T11:34:00;23.90;1.00
1680;DHT22;838;51.794;12.258;2023-06-14T11:36:30;23.90;1.00
1680;DHT22;838;51.794;12.258;2023-06-14T11:39:03;23.90;1.00
1680;DHT22;838;51.794;12.258;2023-06-14T11:41:57;23.60;1.00
1680;DHT22;838;51.794;12.258;2023-06-14T11:44:26;23.20;1.00
1680;DHT22;838;51.794;12.258;2023-06-14T11:46:52;23.00;1.00
1680;DHT22;838;51.794;12.258;2023-06-14T11:49:18;23.10;1.00
1680;DHT22;838;51.794;12.258;2023-06-14T11:51:43;23.30;1.00
1680;DHT22;838;51.794;12.258;2023-06-14T11:54:10;23.60;1.00
1680;DHT22;838;51.794;12.258;2023-06-14T11:56:36;24.00;1.00
1680;DHT22;838;51.794;12.258;2023-06-14T11:59:03;24.20;1.00
1680;DHT22;838;51.794;12.258;2023-06-14T12:01:31;24.20;1.00
1680;DHT22;838;51.794;12.258;2023-06-14T12:03:57;23.80;1.00
1680;DHT22;838;51.794;12.258;2023-06-14T12:06:29;23.60;1.00
1680;DHT22;838;51.794;12.258;2023-06-14T12:08:58;24.10;1.00
1680;DHT22;838;51.794;12.258;2023-06-14T12:11:24;24.20;1.00
1680;DHT22;838;51.794;12.258;2023-06-14T12:13:53;24.40;1.00
1680;DHT22;838;51.794;12.258;2023-06-14T12:16:19;24.10;1.00
1680;DHT22;838;51.794;12.258;2023-06-14T12:18:45;24.00;1.00
1680;DHT22;838;51.794;12.258;2023-06-14T12:21:11;24.10;1.00
1680;DHT22;838;51.794;12.258;2023-06-14T12:26:13;24.30;1.00
1680;DHT22;838;51.794;12.258;2023-06-14T12:28:40;24.50;1.00
1680;DHT22;838;51.794;12.258;2023-06-14T12:31:07;25.00;1.00
1680;DHT22;838;51.794;12.258;2023-06-14T12:33:33;25.10;1.00
1680;DHT22;838;51.794;12.258;2023-06-14T12:35:58;25.40;1.00
1680;DHT22;838;51.794;12.258;2023-06-14T12:38:26;25.40;1.00
1680;DHT22;838;51.794;12.258;2023-06-14T12:40:51;25.30;1.00
1680;DHT22;838;51.794;12.258;2023-06-14T12:43:18;25.00;1.00
1680;DHT22;838;51.794;12.258;2023-06-14T12:45:43;24.40;1.00
1680;DHT22;838;51.794;12.258;2023-06-14T12:48:09;24.20;1.00
1680;DHT22;838;51.794;12.258;2023-06-14T12:50:35;24.00;1.00
1680;DHT22;838;51.794;12.258;2023-06-14T12:53:00;23.90;1.00
1680;DHT22;838;51.794;12.258;2023-06-14T12:55:26;24.10;1.00
1680;DHT22;838;51.794;12.258;2023-06-14T12:57:52;24.40;1.00
1680;DHT22;838;51.794;12.258;2023-06-14T13:00:18;24.80;1.00
1680;DHT22;838;51.794;12.258;2023-06-14T13:02:45;25.00;1.00
1680;DHT22;838;51.794;12.258;2023-06-14T13:05:10;25.00;1.00
1680;DHT22;838;51.794;12.258;2023-06-14T13:07:36;25.30;1.00
1680;DHT22;838;51.794;12.258;2023-06-14T13:10:02;24.90;1.00
1680;DHT22;838;51.794;12.258;2023-06-14T13:12:28;24.60;1.00
1680;DHT22;838;51.794;12.258;2023-06-14T13:14:53;24.90;1.00
1680;DHT22;838;51.794;12.258;2023-06-14T13:17:19;25.20;1.00
1680;DHT22;838;51.794;12.258;2023-06-14T13:19:45;25.20;1.00
1680;DHT22;838;51.794;12.258;2023-06-14T13:22:11;25.50;1.00
1680;DHT22;838;51.794;12.258;2023-06-14T13:24:36;25.50;1.00
1680;DHT22;838;51.794;12.258;2023-06-14T13:27:02;25.70;1.00
1680;DHT22;838;51.794;12.258;2023-06-14T13:29:28;25.50;1.00
1680;DHT22;838;51.794;12.258;2023-06-14T13:31:56;25.80;1.00
1680;DHT22;838;51.794;12.258;2023-06-14T13:34:22;25.90;1.00
1680;DHT22;838;51.794;12.258;2023-06-14T13:36:49;25.90;1.00
1680;DHT22;838;51.794;12.258;2023-06-14T13:39:15;25.90;1.00
1680;DHT22;838;51.794;12.258;2023-06-14T13:41:41;25.80;1.00
1680;DHT22;838;51.794;12.258;2023-06-14T13:44:06;25.20;1.00
1680;DHT22;838;51.794;12.258;2023-06-14T13:46:32;24.60;1.00
1680;DHT22;838;51.794;12.258;2023-06-14T13:48:58;24.60;1.00
1680;DHT22;838;51.794;12.258;2023-06-14T13:51:24;24.60;1.00
1680;DHT22;838;51.794;12.258;2023-06-14T13:53:49;24.70;1.00
1680;DHT22;838;51.794;12.258;2023-06-14T13:56:16;24.50;1.00
1680;DHT22;838;51.794;12.258;2023-06-14T13:58:42;24.60;1.00
1680;DHT22;838;51.794;12.258;2023-06-14T14:01:08;24.60;1.00
1680;DHT22;838;51.794;12.258;2023-06-14T14:03:35;24.50;1.00
1680;DHT22;838;51.794;12.258;2023-06-14T14:06:01;24.80;1.00
1680;DHT22;838;51.794;12.258;2023-06-14T14:08:27;24.80;1.00
1680;DHT22;838;51.794;12.258;2023-06-14T14:10:53;24.70;1.00
1680;DHT22;838;51.794;12.258;2023-06-14T14:13:19;24.40;1.00
1680;DHT22;838;51.794;12.258;2023-06-14T14:15:46;24.40;1.00
1680;DHT22;838;51.794;12.258;2023-06-14T14:18:12;24.70;1.00
1680;DHT22;838;51.794;12.258;2023-06-14T14:20:37;25.10;1.00
1680;DHT22;838;51.794;12.258;2023-06-14T14:23:04;25.40;1.00
1680;DHT22;838;51.794;12.258;2023-06-14T14:25:30;25.70;1.00
1680;DHT22;838;51.794;12.258;2023-06-14T14:27:55;25.60;1.00
1680;DHT22;838;51.794;12.258;2023-06-14T14:30:21;25.70;1.00
1680;DHT22;838;51.794;12.258;2023-06-14T14:32:49;24.90;1.00
1680;DHT22;838;51.794;12.258;2023-06-14T14:35:17;24.90;1.00
1680;DHT22;838;51.794;12.258;2023-06-14T14:37:43;25.20;1.00
1680;DHT22;838;51.794;12.258;2023-06-14T14:40:09;25.40;1.00
1680;DHT22;838;51.794;12.258;2023-06-14T14:42:36;25.20;1.00
1680;DHT22;838;51.794;12.258;2023-06-14T14:45:02;25.20;1.00
1680;DHT22;838;51.794;12.258;2023-06-14T14:47:28;25.10;1.00
1680;DHT22;838;51.794;12.258;2023-06-14T14:49:53;24.90;1.00
1680;DHT22;838;51.794;12.258;2023-06-14T14:52:19;24.60;1.00
1680;DHT22;838;51.794;12.258;2023-06-14T14:54:45;24.60;1.00
1680;DHT22;838;51.794;12.258;2023-06-14T14:57:10;24.70;1.00
1680;DHT22;838;51.794;12.258;2023-06-14T14:59:36;24.80;1.00
1680;DHT22;838;51.794;12.258;2023-06-14T15:02:02;25.10;1.00
1680;DHT22;838;51.794;12.258;2023-06-14T15:04:28;25.20;1.00
1680;DHT22;838;51.794;12.258;2023-06-14T15:06:54;25.30;1.00
1680;DHT22;838;51.794;12.258;2023-06-14T15:09:19;25.60;1.00
1680;DHT22;838;51.794;12.258;2023-06-14T15:11:45;25.80;1.00
1680;DHT22;838;51.794;12.258;2023-06-14T15:14:11;26.10;1.00
1680;DHT22;838;51.794;12.258;2023-06-14T15:16:37;26.20;1.00
1680;DHT22;838;51.794;12.258;2023-06-14T15:19:02;25.60;1.00
1680;DHT22;838;51.794;12.258;2023-06-14T15:21:28;25.30;1.00
1680;DHT22;838;51.794;12.258;2023-06-14T15:23:54;25.50;1.00
1680;DHT22;838;51.794;12.258;2023-06-14T15:26:20;25.40;1.00
1680;DHT22;838;51.794;12.258;2023-06-14T15:28:46;24.80;1.00
1680;DHT22;838;51.794;12.258;2023-06-14T15:31:11;24.40;1.00
1680;DHT22;838;51.794;12.258;2023-06-14T15:33:37;24.40;1.00
1680;DHT22;838;51.794;12.258;2023-06-14T15:36:03;24.50;1.00
1680;DHT22;838;51.794;12.258;2023-06-14T15:38:29;24.80;1.00
1680;DHT22;838;51.794;12.258;2023-06-14T15:40:55;25.20;1.00
1680;DHT22;838;51.794;12.258;2023-06-14T15:43:21;25.40;1.00
1680;DHT22;838;51.794;12.258;2023-06-14T15:45:49;25.30;1.00
1680;DHT22;838;51.794;12.258;2023-06-14T15:48:14;25.50;1.00
1680;DHT22;838;51.794;12.258;2023-06-14T15:50:40;25.40;1.00
1680;DHT22;838;51.794;12.258;2023-06-14T15:53:06;25.20;1.00
1680;DHT22;838;51.794;12.258;2023-06-14T15:55:31;24.80;1.00
1680;DHT22;838;51.794;12.258;2023-06-14T15:57:57;24.70;1.00
1680;DHT22;838;51.794;12.258;2023-06-14T16:00:23;24.70;1.00
1680;DHT22;838;51.794;12.258;2023-06-14T16:02:50;25.00;1.00
1680;DHT22;838;51.794;12.258;2023-06-14T16:05:16;25.10;1.00
1680;DHT22;838;51.794;12.258;2023-06-14T16:07:42;25.30;1.00
1680;DHT22;838;51.794;12.258;2023-06-14T16:10:08;25.60;1.00
1680;DHT22;838;51.794;12.258;2023-06-14T16:12:34;25.40;1.00
1680;DHT22;838;51.794;12.258;2023-06-14T16:15:00;25.40;1.00
1680;DHT22;838;51.794;12.258;2023-06-14T16:17:25;25.50;1.00
1680;DHT22;838;51.794;12.258;2023-06-14T16:19:52;25.50;1.00
1680;DHT22;838;51.794;12.258;2023-06-14T16:22:17;25.80;1.00
1680;DHT22;838;51.794;12.258;2023-06-14T16:24:43;25.80;1.00
1680;DHT22;838;51.794;12.258;2023-06-14T16:27:09;25.50;1.00
1680;DHT22;838;51.794;12.258;2023-06-14T16:29:36;25.20;1.00
1680;DHT22;838;51.794;12.258;2023-06-14T16:32:02;25.30;1.00